createdAt,value
2024-05-09T00:05:36.275Z,1024.34
2024-05-09T00:35:36.027Z,1024.19
2024-05-09T01:05:35.875Z,1024.1
2024-05-09T01:35:35.762Z,1024.13
2024-05-09T02:05:35.876Z,1024.06
2024-05-09T02:35:35.889Z,1024.13
2024-05-09T03:05:35.837Z,1024.09
2024-05-09T03:35:35.772Z,1024.19
2024-05-09T04:05:35.876Z,1024.13
2024-05-09T04:35:35.798Z,1024.22
2024-05-09T05:05:35.798Z,1024.52
2024-05-09T05:35:35.755Z,1024.6
2024-05-09T06:05:35.878Z,1024.7
2024-05-09T06:35:36.110Z,1024.68
2024-05-09T07:05:35.796Z,1024.64
2024-05-09T07:35:35.983Z,1024.55
2024-05-09T08:05:35.780Z,1024.41
2024-05-09T08:35:35.886Z,1024.36
2024-05-09T09:05:35.840Z,1024.29
2024-05-09T09:35:35.787Z,1024.14
2024-05-09T10:05:35.960Z,1024.14
2024-05-09T10:35:35.781Z,1023.91
2024-05-09T11:05:35.958Z,1023.63
2024-05-09T11:35:35.794Z,1023.36
2024-05-09T12:05:35.925Z,1023
2024-05-09T12:35:35.801Z,1022.84
2024-05-09T13:05:35.900Z,1022.65
2024-05-09T13:35:36.286Z,1022.31
2024-05-09T14:05:36.045Z,1022.12
2024-05-09T14:35:35.821Z,1021.79
2024-05-09T15:05:35.881Z,1021.5
2024-05-09T15:35:36.286Z,1021.23
2024-05-09T16:05:36.090Z,1021.07
2024-05-09T16:35:35.840Z,1020.93
2024-05-09T17:05:36.577Z,1020.92
2024-05-09T17:35:36.182Z,1020.86
2024-05-09T18:05:36.938Z,1020.92
2024-05-09T18:35:36.349Z,1021
2024-05-09T19:05:36.489Z,1021.15
2024-05-09T19:35:35.881Z,1021.42
2024-05-09T20:05:36.617Z,1021.53
2024-05-09T20:35:35.879Z,1021.6
2024-05-09T21:05:36.212Z,1021.56
2024-05-09T21:35:35.954Z,1021.63
2024-05-09T22:05:36.102Z,1021.61
2024-05-09T22:35:35.912Z,1021.66
2024-05-09T23:05:35.937Z,1021.71
2024-05-09T23:35:35.905Z,1021.54
